createdAt,value
2019-03-22T00:01:01.202Z,102826.81
2019-03-22T00:02:06.897Z,102834.78
2019-03-22T00:03:12.530Z,102834.02
2019-03-22T00:04:18.370Z,102838.56
2019-03-22T00:05:25.105Z,102830.59
2019-03-22T00:06:30.669Z,102829.78
2019-03-22T00:07:36.578Z,102828.55
2019-03-22T00:08:42.357Z,102827.69
2019-03-22T00:09:48.203Z,102825.95
2019-03-22T00:10:54.165Z,102830.03
2019-03-22T00:12:04.190Z,102823.91
2019-03-22T00:13:09.353Z,102825.34
2019-03-22T00:14:15.025Z,102822.74
2019-03-22T00:15:20.741Z,102825.49
2019-03-22T00:16:26.544Z,102826.42
2019-03-22T00:17:32.762Z,102821.57
2019-03-22T00:18:38.343Z,102822.53
2019-03-22T00:19:43.965Z,102815.95
2019-03-22T00:20:49.902Z,102819.53
2019-03-22T00:21:55.651Z,102824.38
2019-03-22T00:23:01.200Z,102827.50
2019-03-22T00:24:06.820Z,102828.46
2019-03-22T00:25:12.682Z,102824.94
2019-03-22T00:26:18.305Z,102826.73
2019-03-22T00:27:23.991Z,102828.06
2019-03-22T00:28:29.574Z,102823.30
2019-03-22T00:29:35.249Z,102826.33
2019-03-22T00:30:41.160Z,102821.97
2019-03-22T00:31:46.721Z,102819.31
2019-03-22T00:32:54.062Z,102820.70
2019-03-22T00:34:00.359Z,102822.50
2019-03-22T00:35:06.800Z,102811.09
2019-03-22T00:36:12.782Z,102813.30
2019-03-22T00:37:18.401Z,102812.02
2019-03-22T00:38:24.239Z,102808.59
2019-03-22T00:39:29.955Z,102808.20
2019-03-22T00:40:35.842Z,102814.84
2019-03-22T00:41:41.599Z,102808.25
2019-03-22T00:42:47.451Z,102804.77
2019-03-22T00:43:53.122Z,102805.69
2019-03-22T00:44:58.812Z,102805.69
2019-03-22T00:46:04.508Z,102803.50
2019-03-22T00:47:10.278Z,102802.17
2019-03-22T00:48:15.937Z,102810.23
2019-03-22T00:49:21.797Z,102807.17
2019-03-22T00:50:27.734Z,102807.20
2019-03-22T00:51:33.312Z,102800.66
2019-03-22T00:52:39.301Z,102796.73
2019-03-22T00:53:44.907Z,102796.36
2019-03-22T00:54:50.608Z,102799.08
2019-03-22T00:55:56.191Z,102796.02
2019-03-22T00:57:02.096Z,102800.95
2019-03-22T00:58:08.203Z,102798.30
2019-03-22T00:59:14.067Z,102798.36
2019-03-22T01:00:19.779Z,102800.16
2019-03-22T01:01:25.860Z,102801.48
2019-03-22T01:02:31.538Z,102805.09
2019-03-22T01:03:39.660Z,102801.58
2019-03-22T01:04:45.285Z,102801.58
2019-03-22T01:05:50.937Z,102799.84
2019-03-22T01:06:56.613Z,102805.22
2019-03-22T01:08:02.924Z,102801.78
2019-03-22T01:09:08.585Z,102799.59
2019-03-22T01:10:14.612Z,102796.16
2019-03-22T01:11:20.356Z,102796.16
2019-03-22T01:12:26.316Z,102800.15
2019-03-22T01:13:32.297Z,102791.88
2019-03-22T01:14:38.011Z,102795.45
2019-03-22T01:15:43.601Z,102805.20
2019-03-22T01:16:49.229Z,102801.69
2019-03-22T01:17:54.888Z,102803.97
2019-03-22T01:19:00.532Z,102802.23
2019-03-22T01:20:06.891Z,102800.51
2019-03-22T01:21:12.576Z,102798.41
2019-03-22T01:22:18.261Z,102797.08
2019-03-22T01:23:23.826Z,102798.87
2019-03-22T01:24:29.358Z,102805.05
2019-03-22T01:25:35.281Z,102800.66
2019-03-22T01:26:41.576Z,102803.31
2019-03-22T01:27:47.525Z,102802.91
2019-03-22T01:28:53.159Z,102804.23
2019-03-22T01:29:58.792Z,102802.54
2019-03-22T01:31:05.208Z,102793.30
2019-03-22T01:32:10.855Z,102809.17
2019-03-22T01:33:17.121Z,102803.92
2019-03-22T01:34:22.761Z,102803.46
2019-03-22T01:35:28.610Z,102800.03
2019-03-22T01:36:34.496Z,102804.02
2019-03-22T01:37:40.149Z,102811.98
2019-03-22T01:38:45.787Z,102803.15
2019-03-22T01:39:51.320Z,102805.41
2019-03-22T01:40:56.903Z,102810.25
2019-03-22T01:42:02.489Z,102804.53
2019-03-22T01:43:08.719Z,102807.65
2019-03-22T01:44:14.505Z,102808.61
2019-03-22T01:45:20.633Z,102809.99
2019-03-22T01:46:26.256Z,102802.95
2019-03-22T01:47:32.299Z,102806.94
2019-03-22T01:48:37.817Z,102807.89
2019-03-22T01:49:43.691Z,102804.83
2019-03-22T01:50:49.212Z,102807.95
2019-03-22T01:51:55.327Z,102804.92
2019-03-22T01:53:00.930Z,102810.69
2019-03-22T01:54:06.492Z,102807.17
2019-03-22T01:55:15.378Z,102794.25
2019-03-22T01:56:20.929Z,102794.25
2019-03-22T01:57:26.579Z,102804.66
2019-03-22T01:58:32.146Z,102797.31
2019-03-22T01:59:37.947Z,102802.53
2019-03-22T02:00:43.669Z,102795.52
2019-03-22T02:01:49.355Z,102795.98
2019-03-22T02:02:55.051Z,102791.59
2019-03-22T02:04:00.720Z,102790.27
2019-03-22T02:05:06.789Z,102796.53
2019-03-22T02:06:12.810Z,102801.44
2019-03-22T02:07:18.512Z,102792.61
2019-03-22T02:08:24.155Z,102789.09
2019-03-22T02:09:29.729Z,102788.69
2019-03-22T02:10:35.468Z,102789.19
2019-03-22T02:11:41.346Z,102796.28
2019-03-22T02:12:47.032Z,102784.62
2019-03-22T02:13:53.052Z,102794.64
2019-03-22T02:14:58.661Z,102796.42
2019-03-22T02:16:04.339Z,102798.27
2019-03-22T02:17:10.069Z,102796.57
2019-03-22T02:18:15.932Z,102794.84
2019-03-22T02:19:21.907Z,102798.05
2019-03-22T02:20:27.636Z,102796.31
2019-03-22T02:21:34.034Z,102792.79
2019-03-22T02:22:39.722Z,102790.59
2019-03-22T02:23:45.217Z,102787.95
2019-03-22T02:24:50.750Z,102788.81
2019-03-22T02:25:56.384Z,102791.47
2019-03-22T02:27:01.981Z,102786.16
2019-03-22T02:28:07.831Z,102792.79
2019-03-22T02:29:13.474Z,102787.55
2019-03-22T02:30:19.449Z,102787.17
2019-03-22T02:31:24.962Z,102782.78
2019-03-22T02:32:30.826Z,102789.02
2019-03-22T02:33:36.732Z,102791.30
2019-03-22T02:34:42.510Z,102789.10
2019-03-22T02:35:48.394Z,102786.97
2019-03-22T02:36:54.779Z,102782.16
2019-03-22T02:38:00.601Z,102780.42
2019-03-22T02:39:07.427Z,102782.20
2019-03-22T02:40:13.474Z,102777.83
2019-03-22T02:41:19.090Z,102778.31
2019-03-22T02:42:24.717Z,102779.24
2019-03-22T02:43:30.758Z,102770.88
2019-03-22T02:44:36.666Z,102777.11
2019-03-22T02:45:42.859Z,102774.08
2019-03-22T02:46:50.917Z,102774.13
2019-03-22T02:47:56.567Z,102773.77
2019-03-22T02:49:02.148Z,102773.27
2019-03-22T02:50:18.091Z,102771.16
2019-03-22T02:51:16.360Z,102771.16
2019-03-22T02:52:21.891Z,102771.16
2019-03-22T02:53:27.488Z,102765.86
2019-03-22T02:54:33.382Z,102770.30
2019-03-22T02:55:39.507Z,102762.80
2019-03-22T02:56:46.125Z,102768.11
2019-03-22T02:57:51.777Z,102765.92
2019-03-22T02:58:59.350Z,102760.16
2019-03-22T03:00:05.981Z,102765.86
2019-03-22T03:01:12.023Z,102764.53
2019-03-22T03:02:17.729Z,102760.16
2019-03-22T03:03:23.436Z,102761.02
2019-03-22T03:04:29.435Z,102751.56
2019-03-22T03:05:35.503Z,102751.56
2019-03-22T03:06:41.161Z,102761.88
2019-03-22T03:07:46.940Z,102753.20
2019-03-22T03:08:52.600Z,102761.83
2019-03-22T03:09:58.873Z,102765.31
2019-03-22T03:11:05.023Z,102761.33
2019-03-22T03:12:10.770Z,102761.33
2019-03-22T03:13:16.802Z,102753.98
2019-03-22T03:14:22.849Z,102763.47
2019-03-22T03:15:28.512Z,102761.73
2019-03-22T03:16:34.278Z,102758.68
2019-03-22T03:17:39.978Z,102754.70
2019-03-22T03:18:45.717Z,102757.36
2019-03-22T03:19:51.371Z,102746.84
2019-03-22T03:20:57.096Z,102749.48
2019-03-22T03:22:02.765Z,102749.95
2019-03-22T03:23:08.823Z,102756.98
2019-03-22T03:24:14.501Z,102750.35
2019-03-22T03:25:20.156Z,102760.09
2019-03-22T03:26:25.905Z,102751.67
2019-03-22T03:27:31.840Z,102750.72
2019-03-22T03:28:37.815Z,102750.72
2019-03-22T03:29:43.746Z,102752.45
2019-03-22T03:30:49.363Z,102749.80
2019-03-22T03:31:55.402Z,102753.23
2019-03-22T03:33:01.197Z,102751.45
2019-03-22T03:34:06.877Z,102749.25
2019-03-22T03:35:12.784Z,102750.12
2019-03-22T03:36:18.595Z,102748.33
2019-03-22T03:37:25.064Z,102751.39
2019-03-22T03:38:34.058Z,102758.02
2019-03-22T03:39:39.754Z,102762.00
2019-03-22T03:40:45.514Z,102762.00
2019-03-22T03:41:51.813Z,102762.00
2019-03-22T03:42:57.985Z,102760.67
2019-03-22T03:44:03.921Z,102759.34
2019-03-22T03:45:18.420Z,102761.54
2019-03-22T03:46:24.113Z,102761.08
2019-03-22T03:47:29.834Z,102756.23
2019-03-22T03:48:36.296Z,102754.45
2019-03-22T03:49:42.435Z,102758.42
2019-03-22T03:50:48.448Z,102751.80
2019-03-22T03:51:54.167Z,102754.04
2019-03-22T03:53:00.043Z,102754.45
2019-03-22T03:54:05.704Z,102757.09
2019-03-22T03:55:11.479Z,102760.58
2019-03-22T03:56:17.170Z,102761.08
2019-03-22T03:57:22.878Z,102759.34
2019-03-22T03:58:28.777Z,102763.38
2019-03-22T03:59:34.353Z,102765.58
2019-03-22T04:00:40.154Z,102765.66
2019-03-22T04:01:46.217Z,102767.82
2019-03-22T04:02:51.894Z,102763.06
2019-03-22T04:03:57.956Z,102764.48
2019-03-22T04:05:03.641Z,102762.29
2019-03-22T04:06:09.412Z,102763.67
2019-03-22T04:07:15.058Z,102765.45
2019-03-22T04:08:20.644Z,102761.11
2019-03-22T04:09:26.575Z,102764.68
2019-03-22T04:10:32.161Z,102768.25
2019-03-22T04:11:38.014Z,102763.91
2019-03-22T04:12:43.992Z,102767.02
2019-03-22T04:13:49.530Z,102765.28
2019-03-22T04:14:55.152Z,102764.02
2019-03-22T04:16:03.309Z,102758.34
2019-03-22T04:17:08.951Z,102761.45
2019-03-22T04:18:14.588Z,102760.17
2019-03-22T04:19:20.133Z,102753.55
2019-03-22T04:20:25.801Z,102758.02
2019-03-22T04:21:31.391Z,102757.52
2019-03-22T04:22:36.896Z,102759.80
2019-03-22T04:23:42.666Z,102757.61
2019-03-22T04:24:48.191Z,102758.53
2019-03-22T04:25:53.923Z,102759.00
2019-03-22T04:26:59.734Z,102759.45
2019-03-22T04:28:05.467Z,102758.63
2019-03-22T04:29:11.295Z,102759.55
2019-03-22T04:30:16.883Z,102754.78
2019-03-22T04:31:22.827Z,102754.78
2019-03-22T04:32:29.152Z,102759.69
2019-03-22T04:33:34.830Z,102757.95
2019-03-22T04:34:40.848Z,102747.58
2019-03-22T04:35:46.851Z,102752.24
2019-03-22T04:36:53.039Z,102753.20
2019-03-22T04:37:59.105Z,102753.20
2019-03-22T04:39:06.851Z,102758.55
2019-03-22T04:40:25.229Z,102757.31
2019-03-22T04:41:31.019Z,102759.09
2019-03-22T04:42:36.718Z,102756.05
2019-03-22T04:43:42.456Z,102758.78
2019-03-22T04:44:48.594Z,102759.62
2019-03-22T04:45:54.875Z,102755.41
2019-03-22T04:47:00.999Z,102755.41
2019-03-22T04:48:21.559Z,102742.89
2019-03-22T04:49:28.202Z,102753.22
2019-03-22T04:50:37.356Z,102751.48
2019-03-22T04:51:43.562Z,102754.22
2019-03-22T04:52:50.008Z,102748.52
2019-03-22T04:54:02.753Z,102749.44
2019-03-22T04:55:09.197Z,102752.55
2019-03-22T04:56:17.636Z,102753.87
2019-03-22T04:57:24.862Z,102748.66
2019-03-22T04:58:31.883Z,102751.77
2019-03-22T04:59:39.398Z,102751.77
2019-03-22T05:00:45.901Z,102750.98
2019-03-22T05:01:53.825Z,102744.36
2019-03-22T05:03:00.585Z,102738.25
2019-03-22T05:04:08.480Z,102738.25
2019-03-22T05:05:15.178Z,102745.73
2019-03-22T05:06:21.939Z,102735.68
2019-03-22T05:07:28.026Z,102741.44
2019-03-22T05:08:37.352Z,102740.11
2019-03-22T05:09:44.401Z,102746.74
2019-03-22T05:10:50.741Z,102745.01
2019-03-22T05:11:58.330Z,102745.47
2019-03-22T05:13:05.120Z,102741.49
2019-03-22T05:14:12.055Z,102743.77
2019-03-22T05:15:19.777Z,102741.58
2019-03-22T05:16:25.604Z,102745.15
2019-03-22T05:17:32.625Z,102747.39
2019-03-22T05:18:39.661Z,102747.39
2019-03-22T05:19:49.746Z,102750.59
2019-03-22T05:20:56.222Z,102755.02
2019-03-22T05:22:03.431Z,102752.91
2019-03-22T05:23:09.960Z,102761.33
2019-03-22T05:24:18.421Z,102759.59
2019-03-22T05:25:25.608Z,102759.59
2019-03-22T05:26:34.514Z,102757.89
2019-03-22T05:27:43.880Z,102759.22
2019-03-22T05:28:50.979Z,102757.03
2019-03-22T05:29:59.329Z,102757.03
2019-03-22T05:31:41.947Z,102752.64
2019-03-22T05:32:47.665Z,102756.21
2019-03-22T05:33:53.313Z,102752.73
2019-03-22T05:34:59.089Z,102750.08
2019-03-22T05:36:05.039Z,102748.75
2019-03-22T05:37:10.756Z,102743.97
2019-03-22T05:38:16.384Z,102744.38
2019-03-22T05:39:22.334Z,102743.05
2019-03-22T05:40:27.975Z,102746.16
2019-03-22T05:41:34.143Z,102746.16
2019-03-22T05:42:39.673Z,102743.05
2019-03-22T05:43:45.359Z,102747.44
2019-03-22T05:44:51.608Z,102743.45
2019-03-22T05:45:57.460Z,102739.86
2019-03-22T05:47:03.154Z,102742.13
2019-03-22T05:48:09.463Z,102739.48
2019-03-22T05:49:15.093Z,102750.86
2019-03-22T05:50:20.735Z,102745.61
2019-03-22T05:51:26.790Z,102747.34
2019-03-22T05:52:32.397Z,102752.64
2019-03-22T05:53:38.002Z,102748.62
2019-03-22T05:54:43.957Z,102754.43
2019-03-22T05:55:49.871Z,102751.27
2019-03-22T05:56:55.941Z,102756.56
2019-03-22T05:58:02.242Z,102754.84
2019-03-22T05:59:07.888Z,102755.70
2019-03-22T06:00:15.422Z,102763.66
2019-03-22T06:01:21.055Z,102751.91
2019-03-22T06:02:26.790Z,102751.91
2019-03-22T06:03:32.347Z,102757.62
2019-03-22T06:04:38.073Z,102767.17
2019-03-22T06:05:43.841Z,102769.82
2019-03-22T06:06:49.490Z,102776.44
2019-03-22T06:07:55.010Z,102777.36
2019-03-22T06:09:00.688Z,102777.36
2019-03-22T06:10:06.910Z,102778.69
2019-03-22T06:11:12.502Z,102775.58
2019-03-22T06:12:18.097Z,102776.44
2019-03-22T06:13:24.049Z,102773.80
2019-03-22T06:14:29.786Z,102775.49
2019-03-22T06:15:35.910Z,102769.33
2019-03-22T06:16:41.508Z,102764.89
2019-03-22T06:17:51.889Z,102769.27
2019-03-22T06:18:55.226Z,102767.48
2019-03-22T06:20:00.847Z,102765.84
2019-03-22T06:21:06.422Z,102765.84
2019-03-22T06:22:11.960Z,102782.80
2019-03-22T06:23:17.587Z,102770.87
2019-03-22T06:24:23.561Z,102770.87
2019-03-22T06:25:29.191Z,102771.24
2019-03-22T06:26:34.855Z,102774.30
2019-03-22T06:27:40.712Z,102768.13
2019-03-22T06:28:46.616Z,102771.19
2019-03-22T06:29:54.363Z,102776.44
2019-03-22T06:30:59.480Z,102779.55
2019-03-22T06:32:05.252Z,102779.92
2019-03-22T06:33:10.949Z,102776.77
2019-03-22T06:34:17.296Z,102782.92
2019-03-22T06:35:23.111Z,102784.25
2019-03-22T06:36:29.062Z,102782.84
2019-03-22T06:37:35.092Z,102791.11
2019-03-22T06:38:41.011Z,102789.73
2019-03-22T06:39:46.598Z,102787.49
2019-03-22T06:40:52.277Z,102791.79
2019-03-22T06:41:57.975Z,102789.05
2019-03-22T06:43:03.572Z,102788.59
2019-03-22T06:44:09.590Z,102790.24
2019-03-22T06:45:15.208Z,102792.43
2019-03-22T06:46:20.891Z,102792.84
2019-03-22T06:47:26.638Z,102791.97
2019-03-22T06:48:32.589Z,102785.08
2019-03-22T06:49:38.498Z,102797.22
2019-03-22T06:50:44.111Z,102789.27
2019-03-22T06:51:50.191Z,102793.63
2019-03-22T06:52:55.980Z,102793.63
2019-03-22T06:54:02.143Z,102792.24
2019-03-22T06:55:08.843Z,102794.02
2019-03-22T06:56:14.537Z,102792.30
2019-03-22T06:57:20.581Z,102798.88
2019-03-22T06:58:26.552Z,102794.02
2019-03-22T06:59:32.333Z,102801.92
2019-03-22T07:00:37.941Z,102803.17
2019-03-22T07:01:43.994Z,102804.49
2019-03-22T07:02:49.823Z,102804.03
2019-03-22T07:03:55.526Z,102805.77
2019-03-22T07:05:01.431Z,102809.25
2019-03-22T07:06:07.087Z,102812.77
2019-03-22T07:07:12.677Z,102813.63
2019-03-22T07:08:18.809Z,102814.55
2019-03-22T07:09:24.666Z,102811.58
2019-03-22T07:10:30.757Z,102811.58
2019-03-22T07:11:36.267Z,102816.28
2019-03-22T07:12:41.948Z,102818.48
2019-03-22T07:13:47.538Z,102817.15
2019-03-22T07:14:53.418Z,102822.00
2019-03-22T07:15:59.143Z,102820.67
2019-03-22T07:17:04.765Z,102816.69
2019-03-22T07:18:10.562Z,102819.75
2019-03-22T07:19:16.251Z,102817.47
2019-03-22T07:20:22.366Z,102820.98
2019-03-22T07:21:28.425Z,102819.20
2019-03-22T07:22:34.330Z,102820.94
2019-03-22T07:23:40.067Z,102818.20
2019-03-22T07:24:46.170Z,102819.47
2019-03-22T07:25:51.914Z,102815.03
2019-03-22T07:26:57.782Z,102815.03
2019-03-22T07:28:03.698Z,102814.95
2019-03-22T07:29:09.592Z,102815.35
2019-03-22T07:30:18.828Z,102812.23
2019-03-22T07:31:23.515Z,102813.08
2019-03-22T07:32:29.306Z,102818.32
2019-03-22T07:33:35.221Z,102819.19
2019-03-22T07:34:40.841Z,102815.21
2019-03-22T07:35:46.527Z,102817.86
2019-03-22T07:36:52.497Z,102810.42
2019-03-22T07:37:58.306Z,102817.00
2019-03-22T07:39:05.729Z,102819.59
2019-03-22T07:40:11.959Z,102815.62
2019-03-22T07:41:17.737Z,102815.62
2019-03-22T07:42:23.574Z,102808.72
2019-03-22T07:43:29.669Z,102818.18
2019-03-22T07:44:35.353Z,102817.27
2019-03-22T07:45:41.263Z,102816.72
2019-03-22T07:46:46.955Z,102816.66
2019-03-22T07:47:52.637Z,102816.57
2019-03-22T07:48:58.559Z,102818.22
2019-03-22T07:50:04.821Z,102819.44
2019-03-22T07:51:10.680Z,102817.56
2019-03-22T07:52:16.636Z,102812.40
2019-03-22T07:53:22.591Z,102813.44
2019-03-22T07:54:28.211Z,102818.20
2019-03-22T07:55:33.816Z,102819.87
2019-03-22T07:56:39.638Z,102818.00
2019-03-22T07:57:45.288Z,102815.66
2019-03-22T07:58:51.192Z,102818.72
2019-03-22T07:59:56.831Z,102816.84
2019-03-22T08:01:02.424Z,102823.42
2019-03-22T08:02:08.621Z,102822.87
2019-03-22T08:03:14.255Z,102826.33
2019-03-22T08:04:19.927Z,102826.24
2019-03-22T08:05:25.901Z,102823.45
2019-03-22T08:06:31.888Z,102829.94
2019-03-22T08:07:37.462Z,102824.16
2019-03-22T08:08:43.171Z,102831.52
2019-03-22T08:09:51.250Z,102828.31
2019-03-22T08:10:56.833Z,102829.13
2019-03-22T08:12:02.680Z,102831.23
2019-03-22T08:13:08.625Z,102824.44
2019-03-22T08:14:16.406Z,102826.08
2019-03-22T08:15:32.681Z,102822.05
2019-03-22T08:16:38.346Z,102820.11
2019-03-22T08:17:44.355Z,102822.06
2019-03-22T08:18:50.037Z,102822.06
2019-03-22T08:19:57.255Z,102818.88
2019-03-22T08:21:03.176Z,102820.92
2019-03-22T08:22:08.743Z,102819.05
2019-03-22T08:23:22.322Z,102814.05
2019-03-22T08:24:28.090Z,102818.38
2019-03-22T08:25:34.162Z,102812.11
2019-03-22T08:26:40.136Z,102818.07
2019-03-22T08:27:45.969Z,102813.53
2019-03-22T08:28:51.547Z,102816.50
2019-03-22T08:29:57.171Z,102812.89
2019-03-22T08:31:05.415Z,102809.22
2019-03-22T08:32:10.140Z,102820.55
2019-03-22T08:33:16.049Z,102817.74
2019-03-22T08:34:21.666Z,102812.27
2019-03-22T08:35:27.389Z,102808.59
2019-03-22T08:36:33.141Z,102820.34
2019-03-22T08:37:38.798Z,102814.92
2019-03-22T08:38:44.565Z,102817.89
2019-03-22T08:39:50.357Z,102810.72
2019-03-22T08:40:55.934Z,102806.58
2019-03-22T08:42:01.568Z,102808.68
2019-03-22T08:43:07.507Z,102809.48
2019-03-22T08:44:13.109Z,102812.91
2019-03-22T08:45:18.788Z,102804.38
2019-03-22T08:46:25.255Z,102804.72
2019-03-22T08:47:34.161Z,102797.05
2019-03-22T08:48:38.302Z,102799.95
2019-03-22T08:49:44.130Z,102801.12
2019-03-22T08:50:50.243Z,102800.95
2019-03-22T08:51:55.813Z,102799.06
2019-03-22T08:53:01.548Z,102798.53
2019-03-22T08:54:07.467Z,102797.52
2019-03-22T08:55:13.208Z,102799.14
2019-03-22T08:56:18.822Z,102798.98
2019-03-22T08:57:25.199Z,102797.48
2019-03-22T08:58:30.959Z,102795.13
2019-03-22T08:59:36.848Z,102794.97
2019-03-22T09:00:56.398Z,102798.33
2019-03-22T09:01:51.445Z,102792.95
2019-03-22T09:02:57.224Z,102793.71
2019-03-22T09:04:02.860Z,102787.39
2019-03-22T09:05:09.541Z,102787.23
2019-03-22T09:06:15.109Z,102790.59
2019-03-22T09:07:20.776Z,102790.42
2019-03-22T09:08:26.588Z,102784.07
2019-03-22T09:09:41.502Z,102788.30
2019-03-22T09:10:40.042Z,102789.45
2019-03-22T09:11:46.053Z,102785.30
2019-03-22T09:12:52.531Z,102784.56
2019-03-22T09:13:58.987Z,102783.06
2019-03-22T09:15:05.108Z,102777.57
2019-03-22T09:16:11.058Z,102780.56
2019-03-22T09:17:16.665Z,102780.86
2019-03-22T09:18:22.274Z,102781.08
2019-03-22T09:19:27.893Z,102780.52
2019-03-22T09:20:33.929Z,102779.02
2019-03-22T09:21:39.619Z,102780.17
2019-03-22T09:22:46.006Z,102776.94
2019-03-22T09:23:51.730Z,102777.27
2019-03-22T09:24:57.628Z,102773.61
2019-03-22T09:26:03.472Z,102772.67
2019-03-22T09:27:09.088Z,102772.56
2019-03-22T09:28:15.134Z,102764.58
2019-03-22T09:29:21.215Z,102764.51
2019-03-22T09:30:27.040Z,102767.53
2019-03-22T09:31:33.375Z,102760.88
2019-03-22T09:32:39.245Z,102765.27
2019-03-22T09:33:45.095Z,102765.27
2019-03-22T09:34:51.085Z,102764.33
2019-03-22T09:35:56.711Z,102765.09
2019-03-22T09:37:02.600Z,102763.22
2019-03-22T09:38:13.170Z,102760.92
2019-03-22T09:39:16.207Z,102754.20
2019-03-22T09:40:22.396Z,102758.95
2019-03-22T09:41:28.465Z,102751.36
2019-03-22T09:42:34.160Z,102757.44
2019-03-22T09:43:39.901Z,102756.41
2019-03-22T09:44:45.899Z,102760.25
2019-03-22T09:45:52.363Z,102749.89
2019-03-22T09:46:58.102Z,102753.23
2019-03-22T09:48:06.112Z,102750.47
2019-03-22T09:49:11.893Z,102749.83
2019-03-22T09:50:17.688Z,102751.95
2019-03-22T09:51:23.463Z,102747.38
2019-03-22T09:52:29.531Z,102747.20
2019-03-22T09:53:35.237Z,102743.59
2019-03-22T09:54:41.504Z,102738.55
2019-03-22T09:55:47.570Z,102736.28
2019-03-22T09:56:53.345Z,102740.17
2019-03-22T09:57:59.044Z,102739.23
2019-03-22T09:59:04.993Z,102735.13
2019-03-22T10:00:13.660Z,102732.39
2019-03-22T10:01:23.919Z,102735.06
2019-03-22T10:02:27.436Z,102732.28
2019-03-22T10:03:33.153Z,102729.16
2019-03-22T10:04:38.862Z,102722.89
2019-03-22T10:05:45.326Z,102721.09
2019-03-22T10:06:51.272Z,102718.70
2019-03-22T10:07:57.278Z,102712.80
2019-03-22T10:09:05.396Z,102715.86
2019-03-22T10:10:10.975Z,102722.80
2019-03-22T10:11:17.242Z,102719.67
2019-03-22T10:12:23.293Z,102717.40
2019-03-22T10:13:29.123Z,102714.08
2019-03-22T10:14:34.966Z,102714.76
2019-03-22T10:15:47.004Z,102715.44
2019-03-22T10:16:52.769Z,102713.52
2019-03-22T10:17:58.494Z,102709.81
2019-03-22T10:19:04.254Z,102706.59
2019-03-22T10:20:13.662Z,102708.10
2019-03-22T10:21:22.750Z,102706.11
2019-03-22T10:22:27.194Z,102707.76
2019-03-22T10:23:32.889Z,102707.93
2019-03-22T10:24:44.316Z,102706.52
2019-03-22T10:25:50.165Z,102696.61
2019-03-22T10:26:55.833Z,102703.19
2019-03-22T10:28:02.283Z,102700.33
2019-03-22T10:29:08.157Z,102700.61
2019-03-22T10:30:14.329Z,102692.89
2019-03-22T10:31:20.156Z,102692.34
2019-03-22T10:32:25.797Z,102691.37
2019-03-22T10:33:31.624Z,102695.17
2019-03-22T10:34:39.747Z,102691.02
2019-03-22T10:35:44.944Z,102693.57
2019-03-22T10:36:50.736Z,102687.22
2019-03-22T10:38:00.845Z,102688.86
2019-03-22T10:39:06.703Z,102685.22
2019-03-22T10:40:12.794Z,102684.55
2019-03-22T10:41:18.865Z,102690.27
2019-03-22T10:42:28.047Z,102688.36
2019-03-22T10:43:33.695Z,102692.55
2019-03-22T10:44:39.781Z,102685.30
2019-03-22T10:45:45.514Z,102683.77
2019-03-22T10:46:51.223Z,102682.62
2019-03-22T10:47:56.886Z,102673.01
2019-03-22T10:49:02.805Z,102683.38
2019-03-22T10:50:09.176Z,102682.23
2019-03-22T10:51:14.974Z,102677.55
2019-03-22T10:52:20.731Z,102673.47
2019-03-22T10:53:26.676Z,102677.83
2019-03-22T10:54:32.439Z,102672.88
2019-03-22T10:55:38.087Z,102677.27
2019-03-22T10:56:44.168Z,102674.02
2019-03-22T10:57:50.664Z,102673.42
2019-03-22T10:58:56.718Z,102678.20
2019-03-22T11:00:02.299Z,102673.53
2019-03-22T11:01:08.775Z,102668.38
2019-03-22T11:02:14.992Z,102673.01
2019-03-22T11:03:20.778Z,102668.91
2019-03-22T11:04:26.680Z,102664.70
2019-03-22T11:05:32.770Z,102662.70
2019-03-22T11:06:38.538Z,102666.62
2019-03-22T11:07:44.452Z,102662.97
2019-03-22T11:08:50.925Z,102657.63
2019-03-22T11:09:57.015Z,102655.22
2019-03-22T11:11:02.793Z,102662.20
2019-03-22T11:12:12.542Z,102655.80
2019-03-22T11:13:19.034Z,102653.30
2019-03-22T11:14:24.760Z,102644.97
2019-03-22T11:15:30.452Z,102645.14
2019-03-22T11:16:36.329Z,102646.19
2019-03-22T11:17:42.498Z,102643.31
2019-03-22T11:18:48.356Z,102642.41
2019-03-22T11:19:54.040Z,102644.88
2019-03-22T11:21:05.183Z,102633.12
2019-03-22T11:22:07.728Z,102637.98
2019-03-22T11:23:13.605Z,102642.86
2019-03-22T11:24:19.614Z,102635.79
2019-03-22T11:25:25.288Z,102635.70
2019-03-22T11:26:31.251Z,102637.42
2019-03-22T11:27:37.211Z,102634.66
2019-03-22T11:28:43.235Z,102636.38
2019-03-22T11:29:48.902Z,102632.25
2019-03-22T11:31:01.123Z,102632.52
2019-03-22T11:32:12.069Z,102628.77
2019-03-22T11:33:09.925Z,102624.58
2019-03-22T11:34:15.694Z,102622.91
2019-03-22T11:35:21.316Z,102623.55
2019-03-22T11:36:27.061Z,102616.27
2019-03-22T11:37:32.809Z,102613.98
2019-03-22T11:38:38.460Z,102613.51
2019-03-22T11:39:43.986Z,102616.18
2019-03-22T11:40:49.667Z,102609.02
2019-03-22T11:41:55.628Z,102606.83
2019-03-22T11:43:08.550Z,102610.23
2019-03-22T11:44:09.030Z,102604.06
2019-03-22T11:45:17.160Z,102605.75
2019-03-22T11:46:22.862Z,102606.61
2019-03-22T11:47:28.711Z,102601.52
2019-03-22T11:48:34.758Z,102598.63
2019-03-22T11:49:40.418Z,102593.06
2019-03-22T11:50:49.873Z,102592.02
2019-03-22T11:51:55.681Z,102598.02
2019-03-22T11:53:01.725Z,102592.92
2019-03-22T11:54:07.618Z,102591.84
2019-03-22T11:55:14.235Z,102585.41
2019-03-22T11:56:19.903Z,102592.01
2019-03-22T11:57:25.662Z,102590.92
2019-03-22T11:58:31.364Z,102586.70
2019-03-22T11:59:37.431Z,102584.78
2019-03-22T12:00:43.457Z,102581.60
2019-03-22T12:01:49.582Z,102582.23
2019-03-22T12:02:55.831Z,102582.40
2019-03-22T12:04:01.548Z,102573.77
2019-03-22T12:05:07.817Z,102578.55
2019-03-22T12:06:13.772Z,102575.17
2019-03-22T12:07:19.984Z,102574.47
2019-03-22T12:08:25.826Z,102570.80
2019-03-22T12:09:31.585Z,102568.03
2019-03-22T12:10:37.246Z,102572.30
2019-03-22T12:11:42.893Z,102566.63
2019-03-22T12:12:49.079Z,102560.19
2019-03-22T12:13:54.737Z,102562.64
2019-03-22T12:15:00.454Z,102558.15
2019-03-22T12:16:06.245Z,102558.02
2019-03-22T12:17:11.859Z,102551.33
2019-03-22T12:18:18.372Z,102550.50
2019-03-22T12:19:24.365Z,102552.56
2019-03-22T12:20:30.000Z,102545.75
2019-03-22T12:21:35.990Z,102549.77
2019-03-22T12:22:42.387Z,102554.54
2019-03-22T12:23:48.528Z,102538.34
2019-03-22T12:24:54.258Z,102535.67
2019-03-22T12:26:00.345Z,102532.64
2019-03-22T12:27:06.203Z,102538.48
2019-03-22T12:28:11.835Z,102529.49
2019-03-22T12:29:17.635Z,102525.83
2019-03-22T12:30:23.303Z,102526.59
2019-03-22T12:31:29.559Z,102523.77
2019-03-22T12:32:35.910Z,102523.23
2019-03-22T12:33:42.270Z,102523.96
2019-03-22T12:34:48.375Z,102517.52
2019-03-22T12:35:54.394Z,102513.27